sensor_id;sensor_type;location;lat;lon;timestamp;pressure;altitude;pressure_sealevel;temperature;humidity
7930;BME280;4010;42.698;23.124;2023-03-24T00:01:57;118349.16;;;-140.64;100.00
7930;BME280;4010;42.698;23.124;2023-03-24T00:04:24;118349.16;;;-140.64;100.00
7930;BME280;4010;42.698;23.124;2023-03-24T00:06:52;118349.16;;;-140.64;100.00
7930;BME280;4010;42.698;23.124;2023-03-24T00:09:18;118349.16;;;-140.64;100.00
7930;BME280;4010;42.698;23.124;2023-03-24T00:11:45;118349.16;;;-140.64;100.00
7930;BME280;4010;42.698;23.124;2023-03-24T00:14:14;118349.16;;;-140.64;100.00
7930;BME280;4010;42.698;23.124;2023-03-24T00:16:41;118349.16;;;-140.64;100.00
7930;BME280;4010;42.698;23.124;2023-03-24T00:19:08;118349.16;;;-140.64;100.00
7930;BME280;4010;42.698;23.124;2023-03-24T00:21:37;118349.16;;;-140.64;100.00
7930;BME280;4010;42.698;23.124;2023-03-24T00:24:06;118349.16;;;-140.64;100.00
7930;BME280;4010;42.698;23.124;2023-03-24T00:26:33;118349.16;;;-140.64;100.00
7930;BME280;4010;42.698;23.124;2023-03-24T00:29:03;118349.16;;;-140.64;100.00
7930;BME280;4010;42.698;23.124;2023-03-24T00:31:32;118349.16;;;-140.64;100.00
7930;BME280;4010;42.698;23.124;2023-03-24T00:33:59;118349.16;;;-140.64;100.00
7930;BME280;4010;42.698;23.124;2023-03-24T00:36:27;118349.16;;;-140.64;100.00
7930;BME280;4010;42.698;23.124;2023-03-24T00:38:55;118349.16;;;-140.64;100.00
7930;BME280;4010;42.698;23.124;2023-03-24T00:41:22;118349.16;;;-140.64;100.00
7930;BME280;4010;42.698;23.124;2023-03-24T00:43:53;118349.16;;;-140.64;100.00
7930;BME280;4010;42.698;23.124;2023-03-24T00:46:21;118349.16;;;-140.64;100.00
7930;BME280;4010;42.698;23.124;2023-03-24T00:48:56;118349.16;;;-140.64;100.00
7930;BME280;4010;42.698;23.124;2023-03-24T00:51:27;118349.16;;;-140.64;100.00
7930;BME280;4010;42.698;23.124;2023-03-24T00:53:55;118349.16;;;-140.64;100.00
7930;BME280;4010;42.698;23.124;2023-03-24T00:56:26;118349.16;;;-140.64;100.00
7930;BME280;4010;42.698;23.124;2023-03-24T00:58:53;118349.16;;;-140.64;100.00
7930;BME280;4010;42.698;23.124;2023-03-24T01:01:23;118349.16;;;-140.64;100.00
7930;BME280;4010;42.698;23.124;2023-03-24T01:03:50;118349.16;;;-140.64;100.00
7930;BME280;4010;42.698;23.124;2023-03-24T01:06:18;118349.16;;;-140.64;100.00
7930;BME280;4010;42.698;23.124;2023-03-24T01:08:48;118349.16;;;-140.64;100.00
7930;BME280;4010;42.698;23.124;2023-03-24T01:11:19;118349.16;;;-140.64;100.00
7930;BME280;4010;42.698;23.124;2023-03-24T01:13:47;118349.16;;;-140.64;100.00
7930;BME280;4010;42.698;23.124;2023-03-24T01:16:14;118349.16;;;-140.64;100.00
7930;BME280;4010;42.698;23.124;2023-03-24T01:18:41;118349.16;;;-140.64;100.00
7930;BME280;4010;42.698;23.124;2023-03-24T01:21:08;118349.16;;;-140.64;100.00
7930;BME280;4010;42.698;23.124;2023-03-24T01:23:38;118349.16;;;-140.64;100.00
7930;BME280;4010;42.698;23.124;2023-03-24T01:26:08;118349.16;;;-140.64;100.00
7930;BME280;4010;42.698;23.124;2023-03-24T01:28:36;118349.16;;;-140.64;100.00
7930;BME280;4010;42.698;23.124;2023-03-24T01:31:06;118349.16;;;-140.64;100.00
7930;BME280;4010;42.698;23.124;2023-03-24T01:33:33;118349.16;;;-140.64;100.00
7930;BME280;4010;42.698;23.124;2023-03-24T01:36:00;118349.16;;;-140.64;100.00
7930;BME280;4010;42.698;23.124;2023-03-24T01:38:26;118349.16;;;-140.64;100.00
7930;BME280;4010;42.698;23.124;2023-03-24T01:40:55;118349.16;;;-140.64;100.00
7930;BME280;4010;42.698;23.124;2023-03-24T01:43:25;118349.16;;;-140.64;100.00
7930;BME280;4010;42.698;23.124;2023-03-24T01:46:04;118349.16;;;-140.64;100.00
7930;BME280;4010;42.698;23.124;2023-03-24T01:48:35;118349.16;;;-140.64;100.00
7930;BME280;4010;42.698;23.124;2023-03-24T01:51:06;118349.16;;;-140.64;100.00
7930;BME280;4010;42.698;23.124;2023-03-24T01:53:37;118349.16;;;-140.64;100.00
7930;BME280;4010;42.698;23.124;2023-03-24T01:56:08;118349.16;;;-140.64;100.00
7930;BME280;4010;42.698;23.124;2023-03-24T01:58:37;118349.16;;;-140.64;100.00
7930;BME280;4010;42.698;23.124;2023-03-24T02:01:06;118349.16;;;-140.64;100.00
7930;BME280;4010;42.698;23.124;2023-03-24T02:03:33;118349.16;;;-140.64;100.00
7930;BME280;4010;42.698;23.124;2023-03-24T02:06:04;118349.16;;;-140.64;100.00
7930;BME280;4010;42.698;23.124;2023-03-24T02:08:37;118349.16;;;-140.64;100.00
7930;BME280;4010;42.698;23.124;2023-03-24T02:11:05;118349.16;;;-140.64;100.00
7930;BME280;4010;42.698;23.124;2023-03-24T02:13:33;118349.16;;;-140.64;100.00
7930;BME280;4010;42.698;23.124;2023-03-24T02:16:11;118349.16;;;-140.64;100.00
7930;BME280;4010;42.698;23.124;2023-03-24T02:18:45;118349.16;;;-140.64;100.00
7930;BME280;4010;42.698;23.124;2023-03-24T02:21:53;118349.16;;;-140.64;100.00
7930;BME280;4010;42.698;23.124;2023-03-24T02:25:07;118349.16;;;-140.64;100.00
7930;BME280;4010;42.698;23.124;2023-03-24T02:34:09;118349.16;;;-140.64;100.00
7930;BME280;4010;42.698;23.124;2023-03-24T02:37:03;118349.16;;;-140.64;100.00
7930;BME280;4010;42.698;23.124;2023-03-24T02:40:03;118349.16;;;-140.64;100.00
7930;BME280;4010;42.698;23.124;2023-03-24T02:42:41;118349.16;;;-140.64;100.00
7930;BME280;4010;42.698;23.124;2023-03-24T02:45:20;118349.16;;;-140.64;100.00
7930;BME280;4010;42.698;23.124;2023-03-24T02:47:54;118349.16;;;-140.64;100.00
7930;BME280;4010;42.698;23.124;2023-03-24T02:50:30;118349.16;;;-140.64;100.00
7930;BME280;4010;42.698;23.124;2023-03-24T02:53:06;118349.16;;;-140.64;100.00
7930;BME280;4010;42.698;23.124;2023-03-24T02:55:40;118349.16;;;-140.64;100.00
7930;BME280;4010;42.698;23.124;2023-03-24T02:58:13;118349.16;;;-140.64;100.00
7930;BME280;4010;42.698;23.124;2023-03-24T03:00:45;118349.16;;;-140.64;100.00
7930;BME280;4010;42.698;23.124;2023-03-24T03:03:16;118349.16;;;-140.64;100.00
7930;BME280;4010;42.698;23.124;2023-03-24T03:05:47;118349.16;;;-140.64;100.00
7930;BME280;4010;42.698;23.124;2023-03-24T03:08:18;118349.16;;;-140.64;100.00
7930;BME280;4010;42.698;23.124;2023-03-24T03:10:49;118349.16;;;-140.64;100.00
7930;BME280;4010;42.698;23.124;2023-03-24T03:13:22;118349.16;;;-140.64;100.00
7930;BME280;4010;42.698;23.124;2023-03-24T03:15:53;118349.16;;;-140.64;100.00
7930;BME280;4010;42.698;23.124;2023-03-24T03:18:25;118349.16;;;-140.64;100.00
7930;BME280;4010;42.698;23.124;2023-03-24T03:20:59;118349.16;;;-140.64;100.00
7930;BME280;4010;42.698;23.124;2023-03-24T03:23:32;118349.16;;;-140.64;100.00
7930;BME280;4010;42.698;23.124;2023-03-24T03:26:03;118349.16;;;-140.64;100.00
7930;BME280;4010;42.698;23.124;2023-03-24T03:28:33;118349.16;;;-140.64;100.00
7930;BME280;4010;42.698;23.124;2023-03-24T03:31:04;118349.16;;;-140.64;100.00
7930;BME280;4010;42.698;23.124;2023-03-24T03:33:37;118349.16;;;-140.64;100.00
7930;BME280;4010;42.698;23.124;2023-03-24T03:36:09;118349.16;;;-140.64;100.00
7930;BME280;4010;42.698;23.124;2023-03-24T03:38:44;118349.16;;;-140.64;100.00
7930;BME280;4010;42.698;23.124;2023-03-24T03:41:17;118349.16;;;-140.64;100.00
7930;BME280;4010;42.698;23.124;2023-03-24T03:43:45;118349.16;;;-140.64;100.00
7930;BME280;4010;42.698;23.124;2023-03-24T03:46:13;118349.16;;;-140.64;100.00
7930;BME280;4010;42.698;23.124;2023-03-24T03:48:42;118349.16;;;-140.64;100.00
7930;BME280;4010;42.698;23.124;2023-03-24T03:51:10;118349.16;;;-140.64;100.00
7930;BME280;4010;42.698;23.124;2023-03-24T03:53:41;118349.16;;;-140.64;100.00
7930;BME280;4010;42.698;23.124;2023-03-24T03:56:10;118349.16;;;-140.64;100.00
7930;BME280;4010;42.698;23.124;2023-03-24T03:58:39;118349.16;;;-140.64;100.00
7930;BME280;4010;42.698;23.124;2023-03-24T04:01:08;118349.16;;;-140.64;100.00
7930;BME280;4010;42.698;23.124;2023-03-24T04:03:53;118349.16;;;-140.64;100.00
7930;BME280;4010;42.698;23.124;2023-03-24T04:06:32;118349.16;;;-140.64;100.00
7930;BME280;4010;42.698;23.124;2023-03-24T04:09:08;118349.16;;;-140.64;100.00
7930;BME280;4010;42.698;23.124;2023-03-24T04:12:07;118349.16;;;-140.64;100.00
7930;BME280;4010;42.698;23.124;2023-03-24T04:17:47;118349.16;;;-140.64;100.00
7930;BME280;4010;42.698;23.124;2023-03-24T04:20:21;118349.16;;;-140.64;100.00
7930;BME280;4010;42.698;23.124;2023-03-24T04:23:02;118349.16;;;-140.64;100.00
7930;BME280;4010;42.698;23.124;2023-03-24T04:25:40;118349.16;;;-140.64;100.00
7930;BME280;4010;42.698;23.124;2023-03-24T04:28:17;118349.16;;;-140.64;100.00
7930;BME280;4010;42.698;23.124;2023-03-24T04:30:49;118349.16;;;-140.64;100.00
7930;BME280;4010;42.698;23.124;2023-03-24T04:33:24;118349.16;;;-140.64;100.00
7930;BME280;4010;42.698;23.124;2023-03-24T04:35:57;118349.16;;;-140.64;100.00
7930;BME280;4010;42.698;23.124;2023-03-24T04:38:31;118349.16;;;-140.64;100.00
7930;BME280;4010;42.698;23.124;2023-03-24T04:41:01;118349.16;;;-140.64;100.00
7930;BME280;4010;42.698;23.124;2023-03-24T04:43:32;118349.16;;;-140.64;100.00
7930;BME280;4010;42.698;23.124;2023-03-24T04:46:03;118349.16;;;-140.64;100.00
7930;BME280;4010;42.698;23.124;2023-03-24T04:48:31;118349.16;;;-140.64;100.00
7930;BME280;4010;42.698;23.124;2023-03-24T04:50:59;118349.16;;;-140.64;100.00
7930;BME280;4010;42.698;23.124;2023-03-24T04:53:27;118349.16;;;-140.64;100.00
7930;BME280;4010;42.698;23.124;2023-03-24T04:56:03;118349.16;;;-140.64;100.00
7930;BME280;4010;42.698;23.124;2023-03-24T04:58:32;89232.72;;;-140.64;100.00
7930;BME280;4010;42.698;23.124;2023-03-24T05:00:59;118291.53;;;-140.64;100.00
7930;BME280;4010;42.698;23.124;2023-03-24T05:03:28;118349.16;;;-140.64;100.00
7930;BME280;4010;42.698;23.124;2023-03-24T05:05:55;118349.16;;;-140.64;100.00
7930;BME280;4010;42.698;23.124;2023-03-24T05:08:23;118349.16;;;-140.64;100.00
7930;BME280;4010;42.698;23.124;2023-03-24T05:10:52;118349.16;;;-140.64;100.00
7930;BME280;4010;42.698;23.124;2023-03-24T05:13:19;118349.16;;;-140.64;92.11
7930;BME280;4010;42.698;23.124;2023-03-24T05:15:46;118349.16;;;-140.64;84.30
7930;BME280;4010;42.698;23.124;2023-03-24T05:18:13;118349.16;;;-140.64;78.91
7930;BME280;4010;42.698;23.124;2023-03-24T05:20:41;118349.16;;;-140.64;76.35
7930;BME280;4010;42.698;23.124;2023-03-24T05:23:07;118349.16;;;-140.64;72.07
7930;BME280;4010;42.698;23.124;2023-03-24T05:25:34;118349.16;;;-140.64;68.22
7930;BME280;4010;42.698;23.124;2023-03-24T05:28:02;118349.16;;;-140.64;65.68
7930;BME280;4010;42.698;23.124;2023-03-24T05:30:28;118349.16;;;-140.64;62.46
7930;BME280;4010;42.698;23.124;2023-03-24T05:32:55;118349.16;;;-140.64;61.06
7930;BME280;4010;42.698;23.124;2023-03-24T05:35:22;118349.16;;;-140.64;59.64
7930;BME280;4010;42.698;23.124;2023-03-24T05:37:51;118349.16;;;-140.64;60.00
7930;BME280;4010;42.698;23.124;2023-03-24T05:40:17;118349.16;;;-140.64;61.58
7930;BME280;4010;42.698;23.124;2023-03-24T05:42:47;118349.16;;;-140.64;60.38
7930;BME280;4010;42.698;23.124;2023-03-24T05:45:15;118349.16;;;-140.64;62.90
7930;BME280;4010;42.698;23.124;2023-03-24T05:47:42;118349.16;;;-140.64;63.09
7930;BME280;4010;42.698;23.124;2023-03-24T05:50:09;118349.16;;;-140.64;64.65
7930;BME280;4010;42.698;23.124;2023-03-24T05:52:36;118349.16;;;-140.64;66.39
7930;BME280;4010;42.698;23.124;2023-03-24T05:55:05;118349.16;;;-140.64;69.61
7930;BME280;4010;42.698;23.124;2023-03-24T05:57:32;118349.16;;;-140.64;68.59
7930;BME280;4010;42.698;23.124;2023-03-24T05:59:59;118349.16;;;-140.64;71.23
7930;BME280;4010;42.698;23.124;2023-03-24T06:02:25;118349.16;;;-140.64;74.14
7930;BME280;4010;42.698;23.124;2023-03-24T06:04:52;118349.16;;;-140.64;76.97
7930;BME280;4010;42.698;23.124;2023-03-24T06:07:21;118349.16;;;-140.64;78.88
7930;BME280;4010;42.698;23.124;2023-03-24T06:09:51;118349.16;;;-140.64;81.93
7930;BME280;4010;42.698;23.124;2023-03-24T06:12:23;118349.16;;;-140.64;84.76
7930;BME280;4010;42.698;23.124;2023-03-24T06:14:50;118349.16;;;-140.64;84.93
7930;BME280;4010;42.698;23.124;2023-03-24T06:17:17;118349.16;;;-140.64;85.01
7930;BME280;4010;42.698;23.124;2023-03-24T06:19:45;118349.16;;;-140.64;85.76
7930;BME280;4010;42.698;23.124;2023-03-24T06:22:15;118349.16;;;-140.64;87.67
7930;BME280;4010;42.698;23.124;2023-03-24T06:24:42;118349.16;;;-140.64;86.04
7930;BME280;4010;42.698;23.124;2023-03-24T06:27:09;118349.16;;;-140.64;88.06
7930;BME280;4010;42.698;23.124;2023-03-24T06:29:37;118349.16;;;-140.64;87.62
7930;BME280;4010;42.698;23.124;2023-03-24T06:32:06;118349.16;;;-140.64;87.87
7930;BME280;4010;42.698;23.124;2023-03-24T06:34:33;118349.16;;;-140.64;86.36
7930;BME280;4010;42.698;23.124;2023-03-24T06:37:00;118349.16;;;-140.64;85.28
7930;BME280;4010;42.698;23.124;2023-03-24T06:39:26;118349.16;;;-140.64;85.68
7930;BME280;4010;42.698;23.124;2023-03-24T06:41:53;118349.16;;;-140.64;87.09
7930;BME280;4010;42.698;23.124;2023-03-24T06:44:20;118349.16;;;-140.64;86.66
7930;BME280;4010;42.698;23.124;2023-03-24T06:46:48;118349.16;;;-140.64;87.81
7930;BME280;4010;42.698;23.124;2023-03-24T06:49:15;118349.16;;;-140.64;88.63
7930;BME280;4010;42.698;23.124;2023-03-24T06:51:41;118349.16;;;-140.64;88.44
7930;BME280;4010;42.698;23.124;2023-03-24T06:54:08;118349.16;;;-140.64;88.82
7930;BME280;4010;42.698;23.124;2023-03-24T06:56:35;118349.16;;;-140.64;88.25
7930;BME280;4010;42.698;23.124;2023-03-24T06:59:01;118349.16;;;-140.64;86.88
7930;BME280;4010;42.698;23.124;2023-03-24T07:01:28;118349.16;;;-140.64;86.27
7930;BME280;4010;42.698;23.124;2023-03-24T07:03:56;118349.16;;;-140.64;87.67
7930;BME280;4010;42.698;23.124;2023-03-24T07:06:23;118349.16;;;-140.64;86.68
7930;BME280;4010;42.698;23.124;2023-03-24T07:08:50;118349.16;;;-140.64;87.88
7930;BME280;4010;42.698;23.124;2023-03-24T07:11:16;118349.16;;;-140.64;87.95
7930;BME280;4010;42.698;23.124;2023-03-24T07:13:43;118349.16;;;-140.64;88.65
7930;BME280;4010;42.698;23.124;2023-03-24T07:16:10;118349.16;;;-140.64;85.91
7930;BME280;4010;42.698;23.124;2023-03-24T07:18:37;118349.16;;;-140.64;86.40
7930;BME280;4010;42.698;23.124;2023-03-24T07:21:06;118349.16;;;-140.64;86.99
7930;BME280;4010;42.698;23.124;2023-03-24T07:23:33;118349.16;;;-140.64;86.17
7930;BME280;4010;42.698;23.124;2023-03-24T07:25:59;118349.16;;;-140.64;85.61
7930;BME280;4010;42.698;23.124;2023-03-24T07:28:26;118349.16;;;-140.64;84.39
7930;BME280;4010;42.698;23.124;2023-03-24T07:30:53;118349.16;;;-140.64;85.40
7930;BME280;4010;42.698;23.124;2023-03-24T07:33:19;118349.16;;;-140.64;84.04
7930;BME280;4010;42.698;23.124;2023-03-24T07:35:48;118349.16;;;-140.64;83.43
7930;BME280;4010;42.698;23.124;2023-03-24T07:38:16;118349.16;;;-140.64;83.07
7930;BME280;4010;42.698;23.124;2023-03-24T07:40:43;118349.16;;;-140.64;82.57
7930;BME280;4010;42.698;23.124;2023-03-24T07:43:09;118349.16;;;-140.64;83.12
7930;BME280;4010;42.698;23.124;2023-03-24T07:45:36;118349.16;;;-140.64;83.01
7930;BME280;4010;42.698;23.124;2023-03-24T07:48:03;118349.16;;;-140.64;81.29
7930;BME280;4010;42.698;23.124;2023-03-24T07:50:30;118349.16;;;-140.64;82.30
7930;BME280;4010;42.698;23.124;2023-03-24T07:52:57;118349.16;;;-140.64;81.07
7930;BME280;4010;42.698;23.124;2023-03-24T07:55:26;118349.16;;;-140.64;81.90
7930;BME280;4010;42.698;23.124;2023-03-24T07:57:53;118349.16;;;-140.64;81.35
7930;BME280;4010;42.698;23.124;2023-03-24T08:00:20;118349.16;;;-140.64;82.04
7930;BME280;4010;42.698;23.124;2023-03-24T08:02:50;118349.16;;;-140.64;80.19
7930;BME280;4010;42.698;23.124;2023-03-24T08:05:18;118349.16;;;-140.64;79.18
7930;BME280;4010;42.698;23.124;2023-03-24T08:07:46;118349.16;;;-140.64;79.81
7930;BME280;4010;42.698;23.124;2023-03-24T08:10:18;118349.16;;;-140.64;77.09
7930;BME280;4010;42.698;23.124;2023-03-24T08:12:47;118349.16;;;-140.64;78.16
7930;BME280;4010;42.698;23.124;2023-03-24T08:15:13;118349.16;;;-140.64;78.68
7930;BME280;4010;42.698;23.124;2023-03-24T08:17:40;118349.16;;;-140.64;78.81
7930;BME280;4010;42.698;23.124;2023-03-24T08:20:09;118349.16;;;-140.64;75.36
7930;BME280;4010;42.698;23.124;2023-03-24T08:22:39;118349.16;;;-140.64;76.84
7930;BME280;4010;42.698;23.124;2023-03-24T08:25:06;118349.16;;;-140.64;76.08
7930;BME280;4010;42.698;23.124;2023-03-24T08:27:34;118349.16;;;-140.64;76.11
7930;BME280;4010;42.698;23.124;2023-03-24T08:30:04;118349.16;;;-140.64;75.73
7930;BME280;4010;42.698;23.124;2023-03-24T08:32:31;118349.16;;;-140.64;78.29
7930;BME280;4010;42.698;23.124;2023-03-24T08:34:58;118349.16;;;-140.64;77.23
7930;BME280;4010;42.698;23.124;2023-03-24T08:37:25;118349.16;;;-140.64;73.26
7930;BME280;4010;42.698;23.124;2023-03-24T08:39:52;118349.16;;;-140.64;74.56
7930;BME280;4010;42.698;23.124;2023-03-24T08:42:23;118349.16;;;-140.64;73.42
7930;BME280;4010;42.698;23.124;2023-03-24T08:44:49;118349.16;;;-140.64;73.37
7930;BME280;4010;42.698;23.124;2023-03-24T08:47:17;118349.16;;;-140.64;74.23
7930;BME280;4010;42.698;23.124;2023-03-24T08:49:45;118349.16;;;-140.64;74.44
7930;BME280;4010;42.698;23.124;2023-03-24T08:52:12;118349.16;;;-140.64;73.51
7930;BME280;4010;42.698;23.124;2023-03-24T08:54:39;118349.16;;;-140.64;72.30
7930;BME280;4010;42.698;23.124;2023-03-24T08:57:05;118349.16;;;-140.64;72.53
7930;BME280;4010;42.698;23.124;2023-03-24T08:59:32;118349.16;;;-140.64;72.04
7930;BME280;4010;42.698;23.124;2023-03-24T09:01:59;118349.16;;;-140.64;72.14
7930;BME280;4010;42.698;23.124;2023-03-24T09:04:27;118349.16;;;-140.64;72.06
7930;BME280;4010;42.698;23.124;2023-03-24T09:06:54;118349.16;;;-140.64;71.55
7930;BME280;4010;42.698;23.124;2023-03-24T09:09:24;118349.16;;;-140.64;68.65
7930;BME280;4010;42.698;23.124;2023-03-24T09:11:51;118349.16;;;-140.64;69.12
7930;BME280;4010;42.698;23.124;2023-03-24T09:14:18;118349.16;;;-140.64;66.97
7930;BME280;4010;42.698;23.124;2023-03-24T09:16:46;118349.16;;;-140.64;66.71
7930;BME280;4010;42.698;23.124;2023-03-24T09:19:14;118349.16;;;-140.64;66.49
7930;BME280;4010;42.698;23.124;2023-03-24T09:21:43;118349.16;;;-140.64;62.65
7930;BME280;4010;42.698;23.124;2023-03-24T09:24:11;118349.16;;;-140.64;66.47
7930;BME280;4010;42.698;23.124;2023-03-24T09:26:38;118349.16;;;-140.64;67.48
7930;BME280;4010;42.698;23.124;2023-03-24T09:29:05;118349.16;;;-140.64;60.85
7930;BME280;4010;42.698;23.124;2023-03-24T09:31:31;118349.16;;;-140.64;60.50
7930;BME280;4010;42.698;23.124;2023-03-24T09:33:58;118349.16;;;-140.64;60.79
7930;BME280;4010;42.698;23.124;2023-03-24T09:36:25;118349.16;;;-140.64;60.75
7930;BME280;4010;42.698;23.124;2023-03-24T09:38:53;118349.16;;;-140.64;59.72
7930;BME280;4010;42.698;23.124;2023-03-24T09:41:25;118349.16;;;-140.64;57.00
7930;BME280;4010;42.698;23.124;2023-03-24T09:43:56;118349.16;;;-140.64;57.46
7930;BME280;4010;42.698;23.124;2023-03-24T09:46:29;118349.16;;;-140.64;54.17
7930;BME280;4010;42.698;23.124;2023-03-24T09:48:57;118349.16;;;-140.64;53.42
7930;BME280;4010;42.698;23.124;2023-03-24T09:51:25;118349.16;;;-140.64;52.24
7930;BME280;4010;42.698;23.124;2023-03-24T09:53:59;118349.16;;;-140.64;51.71
7930;BME280;4010;42.698;23.124;2023-03-24T09:56:28;118349.16;;;-140.64;53.94
7930;BME280;4010;42.698;23.124;2023-03-24T09:59:02;118349.16;;;-140.64;53.61
7930;BME280;4010;42.698;23.124;2023-03-24T10:01:30;118349.16;;;-140.64;50.92
7930;BME280;4010;42.698;23.124;2023-03-24T10:03:58;118349.16;;;-140.64;50.69
7930;BME280;4010;42.698;23.124;2023-03-24T10:06:29;118349.16;;;-140.64;50.96
7930;BME280;4010;42.698;23.124;2023-03-24T10:09:07;118349.16;;;-140.64;50.50
7930;BME280;4010;42.698;23.124;2023-03-24T10:11:46;118349.16;;;-140.64;48.81
7930;BME280;4010;42.698;23.124;2023-03-24T10:14:26;118349.16;;;-140.64;48.34
7930;BME280;4010;42.698;23.124;2023-03-24T10:17:04;118349.16;;;-140.64;47.39
7930;BME280;4010;42.698;23.124;2023-03-24T10:19:42;118349.16;;;-140.64;48.27
7930;BME280;4010;42.698;23.124;2023-03-24T10:22:16;118349.16;;;-140.64;47.27
7930;BME280;4010;42.698;23.124;2023-03-24T10:24:54;118349.16;;;-140.64;47.71
7930;BME280;4010;42.698;23.124;2023-03-24T10:27:27;118349.16;;;-140.64;47.29
7930;BME280;4010;42.698;23.124;2023-03-24T10:30:00;118349.16;;;-140.64;46.50
7930;BME280;4010;42.698;23.124;2023-03-24T10:32:31;118349.16;;;-140.64;46.81
7930;BME280;4010;42.698;23.124;2023-03-24T10:35:00;118349.16;;;-140.64;46.57
7930;BME280;4010;42.698;23.124;2023-03-24T10:37:34;118349.16;;;-140.64;46.63
7930;BME280;4010;42.698;23.124;2023-03-24T10:40:13;118349.16;;;-140.64;48.97
7930;BME280;4010;42.698;23.124;2023-03-24T10:42:41;118349.16;;;-140.64;49.98
7930;BME280;4010;42.698;23.124;2023-03-24T10:45:11;118349.16;;;-140.64;47.93
7930;BME280;4010;42.698;23.124;2023-03-24T10:47:40;118349.16;;;-140.64;48.44
7930;BME280;4010;42.698;23.124;2023-03-24T10:50:08;118349.16;;;-140.64;48.07
7930;BME280;4010;42.698;23.124;2023-03-24T10:52:37;118349.16;;;-140.64;47.69
7930;BME280;4010;42.698;23.124;2023-03-24T10:55:12;118349.16;;;-140.64;46.61
7930;BME280;4010;42.698;23.124;2023-03-24T10:57:41;118349.16;;;-140.64;47.63
7930;BME280;4010;42.698;23.124;2023-03-24T11:00:16;118349.16;;;-140.64;48.48
7930;BME280;4010;42.698;23.124;2023-03-24T11:02:54;118349.16;;;-140.64;49.52
7930;BME280;4010;42.698;23.124;2023-03-24T11:05:26;118349.16;;;-140.64;48.82
7930;BME280;4010;42.698;23.124;2023-03-24T11:07:58;118349.16;;;-140.64;47.29
7930;BME280;4010;42.698;23.124;2023-03-24T11:10:37;118349.16;;;-140.64;46.14
7930;BME280;4010;42.698;23.124;2023-03-24T11:13:04;118349.16;;;-140.64;45.44
7930;BME280;4010;42.698;23.124;2023-03-24T11:15:33;118349.16;;;-140.64;45.75
7930;BME280;4010;42.698;23.124;2023-03-24T11:18:07;118349.16;;;-140.64;44.40
7930;BME280;4010;42.698;23.124;2023-03-24T11:20:35;118349.16;;;-140.64;43.71
7930;BME280;4010;42.698;23.124;2023-03-24T11:23:06;118349.16;;;-140.64;46.03
7930;BME280;4010;42.698;23.124;2023-03-24T11:25:37;118349.16;;;-140.64;46.09
7930;BME280;4010;42.698;23.124;2023-03-24T11:28:06;118349.16;;;-140.64;46.84
7930;BME280;4010;42.698;23.124;2023-03-24T11:30:44;118349.16;;;-140.64;46.41
7930;BME280;4010;42.698;23.124;2023-03-24T11:33:18;118349.16;;;-140.64;45.58
7930;BME280;4010;42.698;23.124;2023-03-24T11:35:46;118349.16;;;-140.64;44.51
7930;BME280;4010;42.698;23.124;2023-03-24T11:38:16;118349.16;;;-140.64;45.33
7930;BME280;4010;42.698;23.124;2023-03-24T11:40:54;118349.16;;;-140.64;44.86
7930;BME280;4010;42.698;23.124;2023-03-24T11:43:22;118349.16;;;-140.64;42.03
7930;BME280;4010;42.698;23.124;2023-03-24T11:45:55;118349.16;;;-140.64;41.44
7930;BME280;4010;42.698;23.124;2023-03-24T11:48:27;118349.16;;;-140.64;40.60
7930;BME280;4010;42.698;23.124;2023-03-24T11:50:57;118349.16;;;-140.64;41.34
7930;BME280;4010;42.698;23.124;2023-03-24T11:53:28;118349.16;;;-140.64;41.67
7930;BME280;4010;42.698;23.124;2023-03-24T11:56:01;118349.16;;;-140.64;41.98
7930;BME280;4010;42.698;23.124;2023-03-24T11:58:35;118349.16;;;-140.64;42.25
7930;BME280;4010;42.698;23.124;2023-03-24T12:01:05;118349.16;;;-140.64;40.98
7930;BME280;4010;42.698;23.124;2023-03-24T12:06:44;118349.16;;;-140.64;42.13
7930;BME280;4010;42.698;23.124;2023-03-24T12:09:21;118349.16;;;-140.64;41.71
7930;BME280;4010;42.698;23.124;2023-03-24T12:11:59;118349.16;;;-140.64;40.67
7930;BME280;4010;42.698;23.124;2023-03-24T12:14:39;118349.16;;;-140.64;40.45
7930;BME280;4010;42.698;23.124;2023-03-24T12:17:10;118349.16;;;-140.64;40.20
7930;BME280;4010;42.698;23.124;2023-03-24T12:20:12;118349.16;;;-140.64;40.08
7930;BME280;4010;42.698;23.124;2023-03-24T12:22:49;118349.16;;;-140.64;39.93
7930;BME280;4010;42.698;23.124;2023-03-24T12:25:31;118349.16;;;-140.64;39.10
7930;BME280;4010;42.698;23.124;2023-03-24T12:28:23;118349.16;;;-140.64;39.64
7930;BME280;4010;42.698;23.124;2023-03-24T12:30:59;118349.16;;;-140.64;38.38
7930;BME280;4010;42.698;23.124;2023-03-24T12:33:36;118349.16;;;-140.64;37.65
7930;BME280;4010;42.698;23.124;2023-03-24T12:36:23;118349.16;;;-140.64;37.12
7930;BME280;4010;42.698;23.124;2023-03-24T12:39:01;118349.16;;;-140.64;39.17
7930;BME280;4010;42.698;23.124;2023-03-24T12:41:49;118349.16;;;-140.64;37.13
7930;BME280;4010;42.698;23.124;2023-03-24T12:44:50;118349.16;;;-140.64;36.87
7930;BME280;4010;42.698;23.124;2023-03-24T12:50:31;118349.16;;;-140.64;36.49
7930;BME280;4010;42.698;23.124;2023-03-24T12:53:13;118349.16;;;-140.64;37.95
7930;BME280;4010;42.698;23.124;2023-03-24T12:55:49;118349.16;;;-140.64;37.89
7930;BME280;4010;42.698;23.124;2023-03-24T12:58:21;118349.16;;;-140.64;36.66
7930;BME280;4010;42.698;23.124;2023-03-24T13:00:57;118349.16;;;-140.64;36.91
7930;BME280;4010;42.698;23.124;2023-03-24T13:03:30;118349.16;;;-140.64;36.61
7930;BME280;4010;42.698;23.124;2023-03-24T13:06:07;118349.16;;;-140.64;37.33
7930;BME280;4010;42.698;23.124;2023-03-24T13:08:38;118349.16;;;-140.64;36.12
7930;BME280;4010;42.698;23.124;2023-03-24T13:11:11;118349.16;;;-140.64;36.12